Time;durP1;ratioP1;P1;durP2;ratioP2;P2;SDS_P1;SDS_P2;PMS_P1;PMS_P2;Temp;Humidity;BMP_temperature;BMP_pressure;BME280_temperature;BME280_humidity;BME280_pressure;Samples;Min_cycle;Max_cycle;Signal;HPM_P1;HPM_P2
2021/12/28 00:01:36;;;;;;;12.07;7.20;;;1.10;99.90;;;;;;4190071;28;20326;-57
2021/12/28 00:03:40;;;;;;;14.93;9.03;;;1.00;99.90;;;;;;4193557;28;20392;-57
2021/12/28 00:05:41;;;;;;;16.07;10.23;;;1.00;99.90;;;;;;4191525;28;20282;-56
2021/12/28 00:07:43;;;;;;;10.40;6.87;;;1.00;99.90;;;;;;4193590;28;20318;-58
2021/12/28 00:09:44;;;;;;;13.03;7.47;;;0.90;99.90;;;;;;4193083;28;20815;-56
2021/12/28 00:11:46;;;;;;;9.70;6.13;;;1.00;99.90;;;;;;4192817;28;21125;-56
2021/12/28 00:13:47;;;;;;;13.53;8.57;;;1.00;99.90;;;;;;4192662;28;20723;-57
2021/12/28 00:18:00;;;;;;;10.50;6.67;;;1.00;99.90;;;;;;4193713;28;20273;-56
2021/12/28 00:20:02;;;;;;;11.47;7.23;;;1.00;99.90;;;;;;4192536;28;20346;-57
2021/12/28 00:22:03;;;;;;;10.73;7.00;;;1.00;99.90;;;;;;4193763;28;20761;-55
2021/12/28 00:24:05;;;;;;;10.40;6.87;;;1.00;99.90;;;;;;4192023;28;20327;-56
2021/12/28 00:26:13;;;;;;;10.90;6.87;;;1.00;99.90;;;;;;4193507;28;20285;-55
2021/12/28 00:28:14;;;;;;;11.23;6.93;;;1.10;99.90;;;;;;4192087;28;20870;-57
2021/12/28 00:30:16;;;;;;;9.80;6.63;;;1.10;99.90;;;;;;4193491;28;20754;-54
2021/12/28 00:32:17;;;;;;;9.93;6.93;;;1.10;99.90;;;;;;4192134;28;20700;-56
2021/12/28 00:34:18;;;;;;;10.63;7.23;;;1.20;99.90;;;;;;4193616;28;20273;-57
2021/12/28 00:36:21;;;;;;;12.00;7.93;;;1.20;99.90;;;;;;4191831;28;20354;-53
2021/12/28 00:38:24;;;;;;;12.40;7.53;;;1.20;99.90;;;;;;4193043;28;20285;-56
2021/12/28 00:40:25;;;;;;;11.73;8.23;;;1.20;99.90;;;;;;4191889;28;20307;-56
2021/12/28 00:42:27;;;;;;;12.30;7.40;;;1.20;99.90;;;;;;4192131;28;20798;-55
2021/12/28 00:44:28;;;;;;;11.07;7.07;;;1.20;99.90;;;;;;4192043;28;20265;-55
2021/12/28 00:46:29;;;;;;;9.70;6.47;;;1.10;99.90;;;;;;4192010;28;20303;-57
2021/12/28 00:48:30;;;;;;;9.33;6.37;;;1.20;99.90;;;;;;4192832;28;20326;-50
2021/12/28 00:50:32;;;;;;;8.80;4.90;;;1.20;99.90;;;;;;4192040;28;20270;-57
2021/12/28 00:52:34;;;;;;;8.47;5.63;;;1.10;99.90;;;;;;4193009;28;20270;-50
2021/12/28 00:54:35;;;;;;;12.73;8.37;;;1.10;99.90;;;;;;4191775;28;20299;-54
2021/12/28 00:56:36;;;;;;;11.50;7.10;;;1.00;99.90;;;;;;4193068;28;20277;-56
2021/12/28 00:58:38;;;;;;;12.40;6.53;;;1.10;99.90;;;;;;4191680;28;20296;-52
2021/12/28 01:00:39;;;;;;;8.90;6.37;;;1.10;99.90;;;;;;4192734;28;20339;-54
2021/12/28 01:02:41;;;;;;;9.90;6.30;;;1.10;99.90;;;;;;4191897;28;21099;-61
2021/12/28 01:04:42;;;;;;;10.40;6.10;;;1.10;99.90;;;;;;4193007;28;20269;-58
2021/12/28 01:06:45;;;;;;;8.67;5.83;;;1.10;99.90;;;;;;4191514;28;20293;-56
2021/12/28 01:08:46;;;;;;;15.93;9.17;;;1.10;99.90;;;;;;4192181;28;20756;-58
2021/12/28 01:10:51;;;;;;;14.37;8.53;;;1.10;99.90;;;;;;4191376;28;20921;-54
2021/12/28 01:12:55;;;;;;;10.50;6.70;;;1.10;99.90;;;;;;4192432;28;20339;-53
2021/12/28 01:14:56;;;;;;;14.03;7.90;;;1.10;99.90;;;;;;4189483;28;20303;-60
2021/12/28 01:16:59;;;;;;;12.67;6.97;;;1.10;99.90;;;;;;4192525;28;21274;-56
2021/12/28 01:19:00;;;;;;;12.13;7.40;;;1.10;99.90;;;;;;4191738;28;20257;-55
2021/12/28 01:21:01;;;;;;;13.17;7.30;;;1.10;99.90;;;;;;4191655;28;20680;-63
2021/12/28 01:23:03;;;;;;;12.40;8.00;;;1.10;99.90;;;;;;4192113;28;20262;-56
2021/12/28 01:25:06;;;;;;;13.10;8.30;;;1.20;99.90;;;;;;4191218;28;20273;-54
2021/12/28 01:27:08;;;;;;;13.00;7.63;;;1.20;99.90;;;;;;4192285;28;20289;-54
2021/12/28 01:29:09;;;;;;;10.03;7.33;;;1.10;99.90;;;;;;4191019;28;20745;-55
2021/12/28 01:31:10;;;;;;;11.40;7.37;;;1.20;99.90;;;;;;4192438;28;20273;-57
2021/12/28 01:33:11;;;;;;;12.17;7.50;;;1.20;99.90;;;;;;4191080;28;20746;-56
2021/12/28 01:35:14;;;;;;;10.13;6.60;;;1.20;99.90;;;;;;4192564;28;20322;-56
2021/12/28 01:37:16;;;;;;;10.20;6.50;;;1.20;99.90;;;;;;4191071;28;20644;-56
2021/12/28 01:39:17;;;;;;;8.87;6.63;;;1.20;99.90;;;;;;4192175;28;20331;-57
2021/12/28 01:41:18;;;;;;;8.23;6.10;;;1.20;99.90;;;;;;4191190;28;20785;-55
2021/12/28 01:43:22;;;;;;;9.50;6.10;;;1.20;99.90;;;;;;4192281;28;20261;-55
2021/12/28 01:45:59;;;;;;;9.43;6.13;;;1.10;99.90;;;;;;4191256;28;20388;-61
2021/12/28 01:48:01;;;;;;;10.30;6.77;;;1.10;99.90;;;;;;4192058;28;20339;-56
2021/12/28 01:50:02;;;;;;;8.60;5.90;;;1.10;99.90;;;;;;4191000;28;20265;-57
2021/12/28 01:52:05;;;;;;;9.47;6.17;;;1.10;99.90;;;;;;4192224;28;20320;-52
2021/12/28 01:54:07;;;;;;;8.77;5.73;;;1.00;99.90;;;;;;4191038;28;20334;-56
2021/12/28 01:56:21;;;;;;;7.60;5.53;;;1.00;99.90;;;;;;4191618;28;20265;-54
2021/12/28 01:58:23;;;;;;;8.23;5.77;;;1.00;99.90;;;;;;4190936;28;20281;-56
2021/12/28 02:00:26;;;;;;;8.27;5.47;;;1.00;99.90;;;;;;4191700;28;20250;-56
2021/12/28 02:02:27;;;;;;;8.53;5.90;;;1.00;99.90;;;;;;4191055;28;20269;-58
2021/12/28 02:04:29;;;;;;;8.53;5.53;;;1.00;99.90;;;;;;4191804;28;20331;-54
2021/12/28 02:06:30;;;;;;;9.60;5.57;;;1.10;99.90;;;;;;4190692;28;20347;-58
2021/12/28 02:08:31;;;;;;;10.30;6.80;;;1.10;99.90;;;;;;4191392;28;20358;-57
2021/12/28 02:10:34;;;;;;;9.57;5.80;;;1.10;99.90;;;;;;4191190;28;20327;-59
2021/12/28 02:12:35;;;;;;;12.93;7.67;;;1.10;99.90;;;;;;4190324;28;20254;-57
2021/12/28 02:14:43;;;;;;;13.57;7.53;;;1.10;99.90;;;;;;4191728;28;20350;-57
2021/12/28 02:16:45;;;;;;;11.83;6.80;;;1.00;99.90;;;;;;4190568;28;20262;-55
2021/12/28 02:18:47;;;;;;;9.57;6.43;;;1.10;99.90;;;;;;4191598;28;20343;-56
2021/12/28 02:20:49;;;;;;;14.57;7.70;;;1.00;99.90;;;;;;4190409;28;20876;-57
2021/12/28 02:22:51;;;;;;;11.20;7.60;;;1.00;99.90;;;;;;4191785;28;20327;-56
2021/12/28 02:24:52;;;;;;;12.47;7.93;;;0.90;99.90;;;;;;4190073;28;20289;-54
2021/12/28 02:26:53;;;;;;;14.70;8.97;;;0.90;99.90;;;;;;4191503;28;20359;-58
2021/12/28 02:28:55;;;;;;;15.97;10.13;;;0.90;99.90;;;;;;4189991;28;20323;-55
2021/12/28 02:30:57;;;;;;;16.17;10.37;;;0.80;99.90;;;;;;4191572;28;20822;-56
2021/12/28 02:32:59;;;;;;;18.63;10.67;;;0.90;99.90;;;;;;4189821;28;20607;-54
2021/12/28 02:35:00;;;;;;;16.73;10.13;;;0.90;99.90;;;;;;4191686;28;20274;-58
2021/12/28 02:37:02;;;;;;;19.00;10.30;;;0.90;99.90;;;;;;4188823;28;20269;-57
2021/12/28 02:39:03;;;;;;;18.37;10.47;;;0.90;99.90;;;;;;4190569;28;20277;-55
2021/12/28 02:41:05;;;;;;;21.90;10.60;;;0.90;99.90;;;;;;4190893;28;20307;-55
2021/12/28 02:43:08;;;;;;;15.20;9.53;;;0.90;99.90;;;;;;4190506;28;20327;-59
2021/12/28 02:45:13;;;;;;;16.93;9.93;;;0.90;99.90;;;;;;4190673;28;20338;-59
2021/12/28 02:47:17;;;;;;;15.70;9.33;;;0.90;99.90;;;;;;4189843;28;20301;-52
2021/12/28 02:49:18;;;;;;;12.77;8.30;;;0.90;99.90;;;;;;4191019;28;20277;-56
2021/12/28 02:51:19;;;;;;;8.57;5.90;;;0.90;99.90;;;;;;4189816;28;20300;-57
2021/12/28 02:53:21;;;;;;;10.23;6.27;;;0.90;99.90;;;;;;4189267;28;20672;-57
2021/12/28 02:55:26;;;;;;;9.87;6.60;;;0.80;99.90;;;;;;4189779;28;20335;-57
2021/12/28 02:57:28;;;;;;;10.13;6.50;;;0.80;99.90;;;;;;4191141;28;20262;-57
2021/12/28 02:59:29;;;;;;;12.43;7.60;;;0.80;99.90;;;;;;4189342;28;20265;-54
2021/12/28 03:01:30;;;;;;;16.50;9.10;;;0.80;99.90;;;;;;4190814;28;20319;-55
2021/12/28 03:03:33;;;;;;;14.00;8.33;;;0.80;99.90;;;;;;4189836;28;20261;-56
2021/12/28 03:05:35;;;;;;;11.03;7.40;;;0.80;99.90;;;;;;4191523;28;20261;-53
2021/12/28 03:07:36;;;;;;;13.63;8.20;;;0.80;99.90;;;;;;4189557;28;20403;-56
2021/12/28 03:09:38;;;;;;;10.67;6.77;;;0.80;99.90;;;;;;4190900;28;20266;-55
2021/12/28 03:11:39;;;;;;;11.07;6.63;;;0.80;99.90;;;;;;4189802;28;20326;-55
2021/12/28 03:13:43;;;;;;;10.60;7.50;;;0.90;99.90;;;;;;4190334;28;20303;-55
2021/12/28 03:15:44;;;;;;;9.83;6.77;;;0.80;99.90;;;;;;4190420;28;20390;-53
2021/12/28 03:17:45;;;;;;;9.67;6.53;;;0.90;99.90;;;;;;4189837;28;20366;-54
2021/12/28 03:19:46;;;;;;;10.83;7.00;;;0.90;99.90;;;;;;4189713;28;20262;-53
2021/12/28 03:21:49;;;;;;;15.60;8.13;;;0.90;99.90;;;;;;4189109;28;20261;-54
2021/12/28 03:23:51;;;;;;;14.17;8.77;;;0.90;99.90;;;;;;4190234;28;20315;-60
2021/12/28 03:25:55;;;;;;;12.70;8.33;;;0.80;99.90;;;;;;4189747;28;20413;-55
2021/12/28 03:27:56;;;;;;;15.17;8.77;;;0.80;99.90;;;;;;4190917;28;20285;-56
2021/12/28 03:29:57;;;;;;;14.80;9.17;;;0.70;99.90;;;;;;4189287;28;20277;-56
2021/12/28 03:31:58;;;;;;;15.67;9.43;;;0.80;99.90;;;;;;4190520;28;20807;-58
2021/12/28 03:33:59;;;;;;;18.30;10.27;;;0.80;99.90;;;;;;4189597;28;20265;-57
2021/12/28 03:36:01;;;;;;;16.53;10.27;;;0.80;99.90;;;;;;4190231;28;20269;-56
2021/12/28 03:38:03;;;;;;;15.77;10.07;;;0.90;99.90;;;;;;4189131;28;20323;-58
2021/12/28 03:40:07;;;;;;;19.40;11.53;;;0.90;99.90;;;;;;4190476;28;20257;-57
2021/12/28 03:42:08;;;;;;;21.83;11.33;;;0.90;99.90;;;;;;4189268;28;20727;-57
2021/12/28 03:44:09;;;;;;;20.17;11.60;;;0.90;99.90;;;;;;4189852;28;20994;-57
2021/12/28 03:46:12;;;;;;;21.53;12.20;;;0.90;99.90;;;;;;4189837;28;20738;-56
2021/12/28 03:48:13;;;;;;;21.90;12.47;;;1.00;99.90;;;;;;4189653;28;20304;-51
2021/12/28 03:50:14;;;;;;;24.47;12.93;;;1.00;99.90;;;;;;4189801;28;20265;-57
2021/12/28 03:52:16;;;;;;;20.67;12.00;;;1.00;99.90;;;;;;4189931;28;20815;-56
2021/12/28 03:54:17;;;;;;;24.27;13.87;;;1.00;99.90;;;;;;4190013;28;20634;-55
2021/12/28 03:56:19;;;;;;;24.47;12.93;;;1.00;99.90;;;;;;4188995;28;20277;-52
2021/12/28 03:58:20;;;;;;;23.93;14.03;;;1.00;99.90;;;;;;4190499;28;20676;-57
2021/12/28 04:00:23;;;;;;;25.97;14.67;;;0.90;99.90;;;;;;4189123;28;20277;-55
2021/12/28 04:02:24;;;;;;;24.17;15.10;;;0.90;99.90;;;;;;4190080;28;20269;-54
2021/12/28 04:04:26;;;;;;;27.67;14.63;;;1.00;99.90;;;;;;4188926;28;20815;-57
2021/12/28 04:06:28;;;;;;;25.60;14.73;;;1.00;99.90;;;;;;4190621;28;20318;-56
2021/12/28 04:08:29;;;;;;;27.70;16.00;;;1.00;99.90;;;;;;4189282;28;20850;-55
2021/12/28 04:10:37;;;;;;;21.43;12.13;;;1.00;99.90;;;;;;4190502;28;20265;-55
2021/12/28 04:12:40;;;;;;;28.60;14.90;;;1.00;99.90;;;;;;4189234;28;20688;-55
2021/12/28 04:14:41;;;;;;;24.90;13.97;;;1.00;99.90;;;;;;4190409;28;20327;-59
2021/12/28 04:16:42;;;;;;;24.23;13.90;;;1.00;99.90;;;;;;4189260;28;20254;-57
2021/12/28 04:18:43;;;;;;;23.43;13.80;;;1.00;99.90;;;;;;4190103;28;20418;-59
2021/12/28 04:20:45;;;;;;;19.93;12.60;;;1.00;99.90;;;;;;4189477;28;20269;-54
2021/12/28 04:22:46;;;;;;;18.03;10.50;;;1.00;99.90;;;;;;4189240;28;20265;-53
2021/12/28 04:24:47;;;;;;;15.10;9.37;;;1.00;99.90;;;;;;4189469;28;21151;-51
2021/12/28 04:26:49;;;;;;;15.87;9.43;;;1.00;99.90;;;;;;4189063;28;20327;-54
2021/12/28 04:28:50;;;;;;;13.13;8.70;;;1.00;99.90;;;;;;4190122;28;20289;-56
2021/12/28 04:30:51;;;;;;;15.50;8.77;;;1.00;99.90;;;;;;4188723;28;20273;-58
2021/12/28 04:32:52;;;;;;;15.93;9.33;;;1.00;99.90;;;;;;4190378;28;20261;-56
2021/12/28 04:34:54;;;;;;;19.83;9.73;;;1.00;99.90;;;;;;4189451;28;20261;-55
2021/12/28 04:36:55;;;;;;;17.40;10.77;;;1.00;99.90;;;;;;4189849;28;20281;-55
2021/12/28 04:38:56;;;;;;;19.13;10.60;;;1.00;99.90;;;;;;4189593;28;20281;-62
2021/12/28 04:40:57;;;;;;;20.87;11.23;;;1.10;99.90;;;;;;4189619;28;20277;-56
2021/12/28 04:42:58;;;;;;;19.57;10.57;;;1.00;99.90;;;;;;4188422;28;20296;-57
2021/12/28 04:44:59;;;;;;;22.83;11.50;;;1.10;99.90;;;;;;4190145;28;20331;-58
2021/12/28 04:47:01;;;;;;;15.00;9.33;;;1.10;99.90;;;;;;4188605;28;20285;-59
2021/12/28 04:49:02;;;;;;;12.57;7.73;;;1.10;99.90;;;;;;4190688;28;20265;-56
2021/12/28 04:51:04;;;;;;;14.37;9.07;;;1.10;99.90;;;;;;4192083;28;20780;-55
2021/12/28 04:53:09;;;;;;;12.73;7.80;;;1.10;99.90;;;;;;4192139;28;20314;-53
2021/12/28 04:55:17;;;;;;;8.93;5.93;;;1.10;99.90;;;;;;4192321;28;20314;-55
2021/12/28 04:57:18;;;;;;;8.97;5.83;;;1.00;99.90;;;;;;4191944;28;20692;-56
2021/12/28 04:59:19;;;;;;;9.07;5.90;;;1.10;99.90;;;;;;4192250;28;20729;-61
2021/12/28 05:01:20;;;;;;;11.80;6.53;;;1.10;99.90;;;;;;4191518;28;20271;-58
2021/12/28 05:03:22;;;;;;;10.40;6.63;;;1.10;99.90;;;;;;4193010;28;20329;-58
2021/12/28 05:05:23;;;;;;;11.17;6.53;;;1.10;99.90;;;;;;4191558;28;20258;-57
2021/12/28 05:07:24;;;;;;;14.00;8.03;;;1.10;99.90;;;;;;4192488;28;20293;-57
2021/12/28 05:09:26;;;;;;;13.13;7.57;;;1.10;99.90;;;;;;4191748;28;20335;-57
2021/12/28 05:11:28;;;;;;;11.87;7.47;;;1.10;99.90;;;;;;4191484;28;20315;-59
2021/12/28 05:13:29;;;;;;;12.43;7.73;;;1.10;99.90;;;;;;4191714;28;20688;-54
2021/12/28 05:15:31;;;;;;;14.90;8.40;;;1.20;99.90;;;;;;4192889;28;20277;-64
2021/12/28 05:17:32;;;;;;;15.07;8.40;;;1.20;99.90;;;;;;4191623;28;20262;-55
2021/12/28 05:19:34;;;;;;;17.07;8.73;;;1.20;99.90;;;;;;4193277;28;20675;-59
2021/12/28 05:21:37;;;;;;;13.73;8.57;;;1.20;99.90;;;;;;4191466;28;20261;-57
2021/12/28 05:23:38;;;;;;;14.60;9.10;;;1.20;99.90;;;;;;4192078;28;20262;-56
2021/12/28 05:25:39;;;;;;;16.57;8.90;;;1.20;99.90;;;;;;4191486;28;20273;-58
2021/12/28 05:27:41;;;;;;;13.73;8.17;;;1.20;99.90;;;;;;4191658;28;20344;-57
2021/12/28 05:29:43;;;;;;;15.83;9.37;;;1.20;99.90;;;;;;4191898;28;20250;-59
2021/12/28 05:31:44;;;;;;;18.10;10.37;;;1.30;99.90;;;;;;4191341;28;20319;-58
2021/12/28 05:33:47;;;;;;;17.60;10.10;;;1.30;99.90;;;;;;4193067;28;20302;-57
2021/12/28 05:35:48;;;;;;;19.57;11.23;;;1.30;99.90;;;;;;4191705;28;21128;-60
2021/12/28 05:37:49;;;;;;;21.07;12.23;;;1.30;99.90;;;;;;4191983;28;20301;-58
2021/12/28 05:39:50;;;;;;;22.77;11.90;;;1.30;99.90;;;;;;4191101;28;20316;-57
2021/12/28 05:41:52;;;;;;;22.37;12.03;;;1.30;99.90;;;;;;4191654;28;20315;-56
2021/12/28 05:43:53;;;;;;;28.20;13.27;;;1.30;99.90;;;;;;4190865;28;20265;-55
2021/12/28 05:45:54;;;;;;;22.83;12.10;;;1.30;99.90;;;;;;4189807;28;20669;-58
2021/12/28 05:47:55;;;;;;;26.73;13.87;;;1.30;99.90;;;;;;4190528;28;20297;-57
2021/12/28 05:49:56;;;;;;;27.37;13.80;;;1.40;99.90;;;;;;4192409;28;20273;-59
2021/12/28 05:51:57;;;;;;;25.63;13.53;;;1.30;99.90;;;;;;4190927;28;20303;-56
2021/12/28 05:53:58;;;;;;;29.50;13.90;;;1.40;99.90;;;;;;4191537;28;20314;-56
2021/12/28 05:56:00;;;;;;;22.50;13.07;;;1.30;99.90;;;;;;4191001;28;20261;-55
2021/12/28 05:58:01;;;;;;;27.73;14.10;;;1.20;99.90;;;;;;4191138;28;20269;-56
2021/12/28 06:00:05;;;;;;;26.63;13.90;;;1.30;99.90;;;;;;4190780;28;20261;-54
2021/12/28 06:02:07;;;;;;;22.77;13.53;;;1.30;99.90;;;;;;4190207;28;20747;-58
2021/12/28 06:04:08;;;;;;;25.97;13.37;;;1.30;99.90;;;;;;4191240;28;20745;-57
2021/12/28 06:06:09;;;;;;;22.67;11.97;;;1.30;99.90;;;;;;4191045;28;20265;-58
2021/12/28 06:08:10;;;;;;;21.07;10.30;;;1.30;99.90;;;;;;4191772;28;20379;-62
2021/12/28 06:10:14;;;;;;;17.50;10.33;;;1.30;99.90;;;;;;4190345;28;20315;-57
2021/12/28 06:12:15;;;;;;;14.70;9.17;;;1.40;99.90;;;;;;4191426;28;20277;-57
2021/12/28 06:14:16;;;;;;;15.77;8.90;;;1.40;99.90;;;;;;4189854;28;20273;-55
2021/12/28 06:16:18;;;;;;;12.87;8.10;;;1.30;99.90;;;;;;4191922;28;20270;-56
2021/12/28 06:18:19;;;;;;;11.80;7.27;;;1.40;99.90;;;;;;4189903;28;20272;-58
2021/12/28 06:20:20;;;;;;;12.97;7.77;;;1.30;99.90;;;;;;4191498;28;20278;-58
2021/12/28 06:22:21;;;;;;;16.63;6.87;;;1.30;99.90;;;;;;4190213;28;20273;-55
2021/12/28 06:24:22;;;;;;;12.47;7.43;;;1.40;99.90;;;;;;4189399;28;20366;-58
2021/12/28 06:26:23;;;;;;;14.17;7.73;;;1.30;99.90;;;;;;4189911;28;20273;-56
2021/12/28 06:28:25;;;;;;;12.33;7.87;;;1.30;99.90;;;;;;4190804;28;20301;-57
2021/12/28 06:30:26;;;;;;;15.00;8.93;;;1.40;99.90;;;;;;4190307;28;20315;-56
2021/12/28 06:32:27;;;;;;;16.03;8.30;;;1.30;99.90;;;;;;4188467;28;20335;-58
2021/12/28 06:34:28;;;;;;;11.67;7.20;;;1.30;99.90;;;;;;4191055;28;20273;-57
2021/12/28 06:36:30;;;;;;;17.03;8.17;;;1.30;99.90;;;;;;4190677;28;20273;-57
2021/12/28 06:38:31;;;;;;;12.83;7.93;;;1.30;99.90;;;;;;4191605;28;20327;-58
2021/12/28 06:40:32;;;;;;;12.10;7.70;;;1.30;99.90;;;;;;4189796;28;20319;-58
2021/12/28 06:42:33;;;;;;;14.20;7.43;;;1.30;99.90;;;;;;4190954;28;20359;-59
2021/12/28 06:44:35;;;;;;;13.63;7.83;;;1.30;99.90;;;;;;4189568;28;20281;-54
2021/12/28 06:46:39;;;;;;;15.90;7.93;;;1.30;99.90;;;;;;4191242;28;20684;-58
2021/12/28 06:48:40;;;;;;;15.10;8.40;;;1.30;99.90;;;;;;4189911;28;20378;-55
2021/12/28 06:50:41;;;;;;;12.57;7.37;;;1.40;99.90;;;;;;4190654;28;20668;-58
2021/12/28 06:52:42;;;;;;;15.13;8.53;;;1.30;99.90;;;;;;4189084;28;20262;-58
2021/12/28 06:54:44;;;;;;;15.63;8.80;;;1.40;99.90;;;;;;4190502;28;20887;-58
2021/12/28 06:56:45;;;;;;;16.33;9.00;;;1.40;99.90;;;;;;4189707;28;20652;-58
2021/12/28 06:58:46;;;;;;;19.33;9.20;;;1.40;99.90;;;;;;4189790;28;20668;-57
2021/12/28 07:00:47;;;;;;;17.30;9.27;;;1.40;99.90;;;;;;4190116;28;20249;-56
2021/12/28 07:02:49;;;;;;;20.13;10.87;;;1.40;99.90;;;;;;4189783;28;20783;-58
2021/12/28 07:04:50;;;;;;;17.63;10.13;;;1.40;99.90;;;;;;4190028;28;20328;-54
2021/12/28 07:06:51;;;;;;;23.17;11.23;;;1.40;99.90;;;;;;4190057;28;20261;-58
2021/12/28 07:08:53;;;;;;;16.77;10.83;;;1.40;99.90;;;;;;4190577;28;20347;-58
2021/12/28 07:10:54;;;;;;;19.60;11.27;;;1.30;99.90;;;;;;4189149;28;20737;-57
2021/12/28 07:12:55;;;;;;;20.77;11.50;;;1.30;99.90;;;;;;4190345;28;20265;-58
2021/12/28 07:14:56;;;;;;;22.20;11.80;;;1.20;99.90;;;;;;4189165;28;20733;-56
2021/12/28 07:16:58;;;;;;;24.93;13.90;;;1.20;99.90;;;;;;4190592;28;20311;-58
2021/12/28 07:19:01;;;;;;;16.13;9.83;;;1.20;99.90;;;;;;4189381;28;20403;-58
2021/12/28 07:21:03;;;;;;;16.73;9.50;;;1.20;99.90;;;;;;4190199;28;20342;-56
2021/12/28 07:23:04;;;;;;;18.50;10.70;;;1.20;99.90;;;;;;4189417;28;20281;-58
2021/12/28 07:25:06;;;;;;;15.17;9.33;;;1.20;99.90;;;;;;4190565;28;20293;-57
2021/12/28 07:27:07;;;;;;;18.47;10.00;;;1.30;99.90;;;;;;4188891;28;20261;-59
2021/12/28 07:29:11;;;;;;;22.37;11.03;;;1.30;99.90;;;;;;4190362;28;20639;-57
2021/12/28 07:31:12;;;;;;;16.43;10.43;;;1.30;99.90;;;;;;4189400;28;20322;-59
2021/12/28 07:33:13;;;;;;;21.20;11.53;;;1.30;99.90;;;;;;4189823;28;20327;-57
2021/12/28 07:35:15;;;;;;;21.07;11.33;;;1.30;99.90;;;;;;4190130;28;20311;-58
2021/12/28 07:37:16;;;;;;;17.83;9.53;;;1.30;99.90;;;;;;4189203;28;20323;-58
2021/12/28 07:39:17;;;;;;;18.17;9.63;;;1.30;99.90;;;;;;4190206;28;20261;-58
2021/12/28 07:41:18;;;;;;;19.33;10.50;;;1.40;99.90;;;;;;4188793;28;20414;-56
2021/12/28 07:43:19;;;;;;;24.17;13.47;;;1.30;99.90;;;;;;4190308;28;20725;-57
2021/12/28 07:45:20;;;;;;;28.20;15.73;;;1.40;99.90;;;;;;4188908;28;20793;-57
2021/12/28 07:47:21;;;;;;;24.33;13.80;;;1.40;99.90;;;;;;4189899;28;20265;-57
2021/12/28 07:49:24;;;;;;;22.43;12.37;;;1.30;99.90;;;;;;4188950;28;20298;-58
2021/12/28 07:51:25;;;;;;;24.93;13.57;;;1.30;99.90;;;;;;4190312;28;20318;-57
2021/12/28 07:53:26;;;;;;;22.47;12.47;;;1.30;99.90;;;;;;4189472;28;20332;-56
2021/12/28 07:55:27;;;;;;;20.93;11.23;;;1.20;99.90;;;;;;4189811;28;20265;-58
2021/12/28 07:57:29;;;;;;;19.73;11.43;;;1.20;99.90;;;;;;4189192;28;20676;-58
2021/12/28 07:59:30;;;;;;;26.93;13.67;;;1.10;99.90;;;;;;4189817;28;20265;-57
2021/12/28 08:01:34;;;;;;;31.77;18.07;;;1.10;99.90;;;;;;4188769;28;20257;-59
2021/12/28 08:03:35;;;;;;;27.90;16.60;;;1.00;99.90;;;;;;4189243;28;20270;-58
2021/12/28 08:05:37;;;;;;;33.83;18.90;;;1.00;99.90;;;;;;4189303;28;20245;-58
2021/12/28 08:07:39;;;;;;;40.50;22.27;;;1.00;99.90;;;;;;4188863;28;20274;-59
2021/12/28 08:09:40;;;;;;;40.07;20.93;;;1.10;99.90;;;;;;4189658;28;20340;-56
2021/12/28 08:11:43;;;;;;;28.37;16.40;;;1.10;99.90;;;;;;4188707;28;20269;-59
2021/12/28 08:13:44;;;;;;;25.13;13.37;;;1.10;99.90;;;;;;4189825;28;20295;-59
2021/12/28 08:15:45;;;;;;;24.50;13.23;;;1.00;99.90;;;;;;4188831;28;20299;-56
2021/12/28 08:17:48;;;;;;;26.57;12.43;;;1.00;99.90;;;;;;4190149;28;20274;-58
2021/12/28 08:19:49;;;;;;;27.60;14.67;;;1.00;99.90;;;;;;4188875;28;20281;-58
2021/12/28 08:21:50;;;;;;;28.23;15.20;;;1.00;99.90;;;;;;4190187;28;20315;-56
2021/12/28 08:23:51;;;;;;;16.83;10.07;;;0.90;99.90;;;;;;4191045;28;20335;-58
2021/12/28 08:25:52;;;;;;;16.73;10.30;;;1.00;99.90;;;;;;4192872;28;20767;-56
2021/12/28 08:27:54;;;;;;;15.93;9.67;;;1.00;99.90;;;;;;4190592;28;20326;-58
2021/12/28 08:29:56;;;;;;;16.80;10.03;;;1.00;99.90;;;;;;4192885;28;20265;-58
2021/12/28 08:31:57;;;;;;;14.77;9.00;;;1.00;99.90;;;;;;4192082;28;20307;-59
2021/12/28 08:33:59;;;;;;;15.70;9.73;;;1.00;99.90;;;;;;4192542;28;20278;-56
2021/12/28 08:36:00;;;;;;;15.33;9.53;;;1.00;99.90;;;;;;4192351;28;20257;-54
2021/12/28 08:38:02;;;;;;;18.00;9.87;;;1.00;99.90;;;;;;4191823;28;20273;-57
2021/12/28 08:40:05;;;;;;;17.80;9.93;;;1.00;99.90;;;;;;4192421;28;20277;-55
2021/12/28 08:42:06;;;;;;;12.27;8.30;;;1.00;99.90;;;;;;4191320;28;20274;-56
2021/12/28 08:44:07;;;;;;;16.63;9.60;;;1.00;99.90;;;;;;4192988;28;20315;-59
2021/12/28 08:46:08;;;;;;;16.23;9.23;;;1.00;99.90;;;;;;4191807;28;20273;-57
2021/12/28 08:48:13;;;;;;;20.60;10.93;;;1.00;99.90;;;;;;4192354;28;20285;-57
2021/12/28 08:50:14;;;;;;;19.07;10.30;;;1.00;99.90;;;;;;4191385;28;20281;-57
2021/12/28 08:52:15;;;;;;;16.87;10.17;;;1.00;99.90;;;;;;4193213;28;20269;-56
2021/12/28 08:54:16;;;;;;;16.97;10.80;;;1.00;99.90;;;;;;4191404;28;20337;-56
2021/12/28 08:56:18;;;;;;;17.90;10.83;;;1.00;99.90;;;;;;4192425;28;20321;-56
2021/12/28 08:58:19;;;;;;;19.37;10.20;;;1.00;99.90;;;;;;4191040;28;21094;-56
2021/12/28 09:00:27;;;;;;;20.33;11.40;;;1.10;99.90;;;;;;4192551;28;20729;-58
2021/12/28 09:02:28;;;;;;;17.23;10.73;;;1.00;99.90;;;;;;4191394;28;20270;-57
2021/12/28 09:04:29;;;;;;;16.00;10.77;;;1.10;99.90;;;;;;4192276;28;20265;-59
2021/12/28 09:06:30;;;;;;;17.87;10.63;;;1.10;99.90;;;;;;4192068;28;20257;-56
2021/12/28 09:08:32;;;;;;;15.87;9.87;;;1.10;99.90;;;;;;4191897;28;20297;-58
2021/12/28 09:10:33;;;;;;;18.40;11.17;;;1.10;99.90;;;;;;4191567;28;20269;-57
2021/12/28 09:12:34;;;;;;;19.23;10.53;;;1.10;99.90;;;;;;4191319;28;20265;-57
2021/12/28 09:14:36;;;;;;;16.93;8.93;;;1.20;99.90;;;;;;4191597;28;20319;-56
2021/12/28 09:16:37;;;;;;;16.97;10.23;;;1.20;99.90;;;;;;4191267;28;20324;-57
2021/12/28 09:18:39;;;;;;;15.77;9.23;;;1.20;99.90;;;;;;4192022;28;20286;-55
2021/12/28 09:20:41;;;;;;;16.60;9.17;;;1.30;99.90;;;;;;4190950;28;20339;-57
2021/12/28 09:22:43;;;;;;;15.13;9.63;;;1.30;99.90;;;;;;4192316;28;20261;-56
2021/12/28 09:24:44;;;;;;;15.10;8.90;;;1.30;99.90;;;;;;4190441;28;20323;-57
2021/12/28 09:26:45;;;;;;;14.53;7.80;;;1.30;99.90;;;;;;4192176;28;20749;-57
2021/12/28 09:28:46;;;;;;;10.50;6.07;;;1.30;99.90;;;;;;4190587;28;21145;-56
2021/12/28 09:30:48;;;;;;;7.87;5.70;;;1.40;99.90;;;;;;4192038;28;20280;-58
2021/12/28 09:32:49;;;;;;;10.53;6.57;;;1.30;99.90;;;;;;4190522;28;20327;-57
2021/12/28 09:34:53;;;;;;;9.20;5.87;;;1.30;99.90;;;;;;4191389;28;20707;-56
2021/12/28 09:36:55;;;;;;;12.03;7.27;;;1.30;99.90;;;;;;4191069;28;20270;-60
2021/12/28 09:38:56;;;;;;;19.97;9.63;;;1.30;99.90;;;;;;4191546;28;20261;-55
2021/12/28 09:40:57;;;;;;;10.33;6.80;;;1.30;99.90;;;;;;4191182;28;20656;-58
2021/12/28 09:42:59;;;;;;;11.87;7.33;;;1.40;99.90;;;;;;4191138;28;20270;-59
2021/12/28 09:45:00;;;;;;;13.20;7.43;;;1.40;99.90;;;;;;4190954;28;20261;-57
2021/12/28 09:47:02;;;;;;;14.50;8.13;;;1.30;99.90;;;;;;4190356;28;20261;-58
2021/12/28 09:49:03;;;;;;;14.10;7.97;;;1.30;99.90;;;;;;4191447;28;20692;-60
2021/12/28 09:51:07;;;;;;;12.30;6.93;;;1.40;99.90;;;;;;4190738;28;20334;-57
2021/12/28 09:53:12;;;;;;;10.80;6.87;;;1.40;99.90;;;;;;4191661;28;20788;-58
2021/12/28 09:55:16;;;;;;;9.53;6.30;;;1.40;99.90;;;;;;4190390;28;20773;-57
2021/12/28 09:57:18;;;;;;;10.70;7.00;;;1.40;99.90;;;;;;4191540;28;20898;-58
2021/12/28 09:59:19;;;;;;;12.53;6.27;;;1.40;99.90;;;;;;4189650;28;20273;-57
2021/12/28 10:01:21;;;;;;;9.57;6.43;;;1.30;99.90;;;;;;4191349;28;20773;-57
2021/12/28 10:03:22;;;;;;;12.57;8.23;;;1.30;99.90;;;;;;4190409;28;21122;-59
2021/12/28 10:05:25;;;;;;;11.47;7.47;;;1.30;99.90;;;;;;4191814;28;20331;-58
2021/12/28 10:07:32;;;;;;;8.47;5.87;;;1.40;99.90;;;;;;4190333;28;20261;-58
2021/12/28 10:09:34;;;;;;;10.50;6.13;;;1.30;99.90;;;;;;4191008;28;20374;-56
2021/12/28 10:11:42;;;;;;;9.97;6.30;;;1.40;99.90;;;;;;4189712;28;20261;-56
2021/12/28 10:13:43;;;;;;;13.67;8.07;;;1.40;99.90;;;;;;4190709;28;20300;-56
2021/12/28 10:15:47;;;;;;;12.47;7.57;;;1.40;99.90;;;;;;4190010;28;20269;-58
2021/12/28 10:17:50;;;;;;;14.37;7.50;;;1.40;99.90;;;;;;4188950;28;20330;-57
2021/12/28 10:19:51;;;;;;;11.60;7.57;;;1.40;99.90;;;;;;4190521;28;20257;-58
2021/12/28 10:21:52;;;;;;;11.30;6.60;;;1.50;99.90;;;;;;4190355;28;20265;-56
2021/12/28 10:23:57;;;;;;;9.57;6.27;;;1.40;99.90;;;;;;4190806;28;20270;-62
2021/12/28 10:26:01;;;;;;;10.50;6.70;;;1.40;99.90;;;;;;4190099;28;20679;-55
2021/12/28 10:28:18;;;;;;;14.03;7.50;;;1.50;99.90;;;;;;4190631;28;20343;-57
2021/12/28 10:30:27;;;;;;;11.83;7.17;;;1.50;99.90;;;;;;4189444;28;20285;-57
2021/12/28 10:32:29;;;;;;;14.03;8.83;;;1.50;99.90;;;;;;4190574;28;20335;-58
2021/12/28 10:34:30;;;;;;;9.87;6.90;;;1.50;99.90;;;;;;4189544;28;20740;-57
2021/12/28 10:36:33;;;;;;;12.50;7.83;;;1.50;99.90;;;;;;4191048;28;20318;-59